Time;durP1;ratioP1;P1;durP2;ratioP2;P2;SDS_P1;SDS_P2;PMS_P1;PMS_P2;Temp;Humidity;BMP_temperature;BMP_pressure;BME280_temperature;BME280_humidity;BME280_pressure;Samples;Min_cycle;Max_cycle;Signal;HPM_P1;HPM_P2
2022/07/12 00:02:01;;;;;;;2.78;2.58;;;16.20;99.90;;;;;;5065794;28;20048;-73
2022/07/12 00:04:27;;;;;;;2.85;2.60;;;16.20;99.90;;;;;;5045767;28;20037;-73
2022/07/12 00:06:52;;;;;;;2.75;2.63;;;16.10;99.90;;;;;;5066617;28;20043;-73
2022/07/12 00:09:18;;;;;;;3.00;2.80;;;16.10;99.90;;;;;;5060128;28;20444;-73
2022/07/12 00:11:43;;;;;;;3.10;2.90;;;16.10;99.90;;;;;;5068754;28;20040;-74
2022/07/12 00:14:09;;;;;;;3.30;3.03;;;16.10;99.90;;;;;;5066865;28;20097;-73
2022/07/12 00:16:35;;;;;;;2.10;2.00;;;16.10;99.90;;;;;;5065550;28;20048;-73
2022/07/12 00:19:01;;;;;;;3.00;2.80;;;16.10;99.90;;;;;;5057656;28;20139;-73
2022/07/12 00:21:27;;;;;;;3.17;2.88;;;16.10;99.90;;;;;;5066463;28;20120;-73
2022/07/12 00:23:53;;;;;;;3.00;2.80;;;16.00;99.90;;;;;;5044606;28;20037;-73
2022/07/12 00:26:19;;;;;;;3.83;2.80;;;16.00;99.90;;;;;;5060950;28;20048;-73
2022/07/12 00:28:45;;;;;;;3.28;2.15;;;16.00;99.90;;;;;;5059095;28;20040;-73
2022/07/12 00:31:13;;;;;;;2.30;2.10;;;16.60;99.90;;;;;;5063322;28;20048;-74
2022/07/12 00:33:39;;;;;;;2.00;1.90;;;16.30;99.90;;;;;;5068140;28;20063;-74
2022/07/12 00:36:05;;;;;;;2.40;2.20;;;15.90;99.90;;;;;;5059667;28;20559;-73
2022/07/12 00:38:30;;;;;;;3.00;2.70;;;16.00;99.90;;;;;;5068688;28;20090;-73
2022/07/12 00:40:56;;;;;;;2.47;2.30;;;16.00;99.90;;;;;;5066980;28;20049;-73
2022/07/12 00:43:22;;;;;;;2.25;2.05;;;15.90;99.90;;;;;;5065512;28;20515;-73
2022/07/12 00:45:47;;;;;;;3.33;2.17;;;15.90;99.90;;;;;;5068336;28;20370;-73
2022/07/12 00:48:13;;;;;;;2.50;2.30;;;15.90;99.90;;;;;;5068127;28;20410;-73
2022/07/12 00:50:39;;;;;;;2.65;2.45;;;16.70;99.90;;;;;;5068272;28;20063;-74
2022/07/12 00:53:05;;;;;;;2.83;2.60;;;16.00;99.90;;;;;;5066370;28;20067;-74
2022/07/12 00:55:31;;;;;;;2.75;2.55;;;16.50;99.90;;;;;;5062839;28;20101;-74
2022/07/12 00:57:57;;;;;;;3.13;2.90;;;16.00;99.90;;;;;;5059040;28;20051;-74
2022/07/12 01:00:25;;;;;;;2.60;2.50;;;15.90;99.90;;;;;;5066812;28;20040;-74
2022/07/12 01:02:55;;;;;;;2.80;2.60;;;15.90;99.90;;;;;;5061971;28;20041;-74
2022/07/12 01:05:21;;;;;;;3.10;2.80;;;16.70;99.90;;;;;;5068055;28;20072;-74
2022/07/12 01:07:48;;;;;;;3.40;3.10;;;16.10;99.90;;;;;;5061160;28;20449;-74
2022/07/12 01:10:14;;;;;;;4.43;2.75;;;15.90;99.90;;;;;;5062660;28;20692;-74
2022/07/12 01:12:40;;;;;;;3.13;2.50;;;16.00;99.90;;;;;;5064991;28;20036;-74
2022/07/12 01:15:07;;;;;;;4.00;3.60;;;16.60;99.90;;;;;;5042734;28;20036;-74
2022/07/12 01:17:33;;;;;;;2.80;2.70;;;15.90;99.90;;;;;;5066287;28;20044;-73
2022/07/12 01:19:59;;;;;;;3.92;3.63;;;15.90;99.90;;;;;;5042812;28;20045;-73
2022/07/12 01:22:32;;;;;;;3.55;3.28;;;15.90;99.90;;;;;;5067401;28;20045;-73
2022/07/12 01:24:59;;;;;;;3.63;3.40;;;16.50;99.90;;;;;;5059301;28;20052;-73
2022/07/12 01:27:24;;;;;;;2.88;2.78;;;15.90;99.90;;;;;;5062689;28;20041;-73
2022/07/12 01:29:50;;;;;;;3.38;3.00;;;15.90;99.90;;;;;;5055488;28;20052;-74
2022/07/12 01:32:25;;;;;;;2.90;2.70;;;15.90;99.90;;;;;;5060756;28;20040;-74
2022/07/12 01:34:58;;;;;;;5.28;3.55;;;15.90;99.90;;;;;;5045109;28;20169;-73
2022/07/12 01:37:28;;;;;;;4.13;3.73;;;15.90;99.90;;;;;;5038510;28;20119;-74
2022/07/12 01:39:55;;;;;;;3.28;3.10;;;15.80;99.90;;;;;;5056248;28;20328;-73
2022/07/12 01:42:22;;;;;;;3.15;2.90;;;15.80;99.90;;;;;;5067792;28;20052;-74
2022/07/12 01:44:50;;;;;;;3.67;3.38;;;15.80;99.90;;;;;;5063070;28;20491;-73
2022/07/12 01:47:17;;;;;;;4.72;3.15;;;15.80;99.90;;;;;;5054224;28;20041;-73
2022/07/12 01:49:42;;;;;;;3.50;3.30;;;15.80;99.90;;;;;;5066460;28;20518;-73
2022/07/12 01:52:09;;;;;;;4.28;3.97;;;15.80;99.90;;;;;;5065487;28;20036;-73
2022/07/12 01:54:35;;;;;;;4.32;3.92;;;15.80;99.90;;;;;;5049093;28;20032;-73
2022/07/12 01:57:05;;;;;;;3.63;3.40;;;15.80;99.90;;;;;;5066108;28;20058;-73
2022/07/12 01:59:31;;;;;;;5.43;4.10;;;15.80;99.90;;;;;;5056930;28;20036;-73
2022/07/12 02:01:57;;;;;;;4.45;4.10;;;15.80;99.90;;;;;;5059476;28;20124;-73
2022/07/12 02:04:23;;;;;;;4.47;3.85;;;15.80;99.90;;;;;;5056409;28;20110;-73
2022/07/12 02:06:49;;;;;;;4.88;4.28;;;15.80;99.90;;;;;;5050811;28;20040;-73
2022/07/12 02:09:16;;;;;;;4.47;4.13;;;15.80;99.90;;;;;;5058345;28;20058;-73
2022/07/12 02:11:43;;;;;;;4.13;3.80;;;15.70;99.90;;;;;;5065754;28;20496;-74
2022/07/12 02:14:09;;;;;;;4.05;3.75;;;15.80;99.90;;;;;;5051815;28;20045;-73
2022/07/12 02:16:35;;;;;;;4.35;4.07;;;15.70;99.90;;;;;;5070299;28;20036;-74
2022/07/12 02:19:01;;;;;;;4.00;3.72;;;15.90;99.90;;;;;;5070237;28;20098;-73
2022/07/12 02:21:27;;;;;;;5.75;4.60;;;15.70;99.90;;;;;;5062689;28;20033;-74
2022/07/12 02:23:53;;;;;;;4.68;4.28;;;15.70;99.90;;;;;;5069230;28;20045;-74
2022/07/12 02:26:19;;;;;;;5.45;4.57;;;15.70;99.90;;;;;;5050157;28;20122;-74
2022/07/12 02:28:45;;;;;;;5.32;4.90;;;15.60;99.90;;;;;;5043321;28;21852;-73
2022/07/12 02:31:14;;;;;;;5.20;4.82;;;15.60;99.90;;;;;;5024515;28;20055;-73
2022/07/12 02:33:39;;;;;;;5.13;4.78;;;15.60;99.90;;;;;;5046295;28;20487;-74
2022/07/12 02:36:05;;;;;;;5.32;4.93;;;15.50;99.90;;;;;;5066783;28;20062;-73
2022/07/12 02:38:31;;;;;;;6.47;5.82;;;15.50;99.90;;;;;;5062805;28;20488;-74
2022/07/12 02:40:56;;;;;;;6.70;6.20;;;15.50;99.90;;;;;;5070645;28;20214;-73
2022/07/12 02:43:27;;;;;;;6.75;6.22;;;15.50;99.90;;;;;;5062927;28;20465;-73
2022/07/12 02:45:57;;;;;;;6.80;6.20;;;15.50;99.90;;;;;;5051102;28;20074;-73
2022/07/12 02:48:23;;;;;;;6.32;5.80;;;16.10;99.90;;;;;;5067831;28;20518;-73
2022/07/12 02:50:48;;;;;;;6.90;6.38;;;16.00;99.90;;;;;;5067267;28;20041;-73
2022/07/12 02:53:15;;;;;;;7.00;6.35;;;15.40;99.90;;;;;;5054712;28;20422;-74
2022/07/12 02:55:41;;;;;;;6.72;6.22;;;15.40;99.90;;;;;;5065202;28;20033;-73
2022/07/12 02:58:07;;;;;;;6.78;6.22;;;14.80;99.90;;;;;;5051322;28;20446;-73
2022/07/12 03:00:34;;;;;;;8.50;6.60;;;15.40;99.90;;;;;;5062623;28;20046;-76
2022/07/12 03:03:03;;;;;;;7.22;5.68;;;15.40;99.90;;;;;;5051669;28;20932;-74
2022/07/12 03:05:29;;;;;;;5.40;5.05;;;16.40;99.90;;;;;;5049193;28;20185;-74
2022/07/12 03:07:54;;;;;;;6.47;5.93;;;15.20;99.90;;;;;;5049201;28;20056;-74
2022/07/12 03:10:20;;;;;;;5.38;4.88;;;15.40;99.90;;;;;;5068221;28;20037;-74
2022/07/12 03:12:46;;;;;;;6.25;5.07;;;15.40;99.90;;;;;;5060744;28;20136;-74
2022/07/12 03:15:12;;;;;;;4.50;4.20;;;15.80;99.90;;;;;;5048870;28;20041;-73
2022/07/12 03:17:38;;;;;;;4.80;4.40;;;15.60;99.90;;;;;;5061171;28;20037;-74
2022/07/12 03:20:10;;;;;;;8.95;5.32;;;15.30;99.90;;;;;;5064062;28;20052;-74
2022/07/12 03:22:36;;;;;;;5.13;4.72;;;15.30;99.90;;;;;;5050080;28;20044;-74
2022/07/12 03:25:02;;;;;;;32.72;6.53;;;16.00;99.90;;;;;;5067106;28;20142;-74
2022/07/12 03:27:27;;;;;;;5.38;4.90;;;15.30;99.90;;;;;;5068918;28;20471;-74
2022/07/12 03:29:53;;;;;;;5.50;4.53;;;15.30;99.90;;;;;;5045765;28;20071;-74
2022/07/12 03:32:44;;;;;;;4.88;4.38;;;15.60;99.90;;;;;;5059939;28;20116;-79
2022/07/12 03:35:10;;;;;;;5.28;4.78;;;15.20;99.90;;;;;;5062538;28;20049;-75
2022/07/12 03:37:52;;;;;;;5.97;5.00;;;16.70;99.90;;;;;;5030699;28;20054;-75
2022/07/12 03:40:19;;;;;;;5.53;5.00;;;15.90;99.90;;;;;;5064046;28;20119;-75
2022/07/12 03:42:46;;;;;;;5.80;5.25;;;15.20;99.90;;;;;;5050553;28;20102;-74
2022/07/12 03:45:14;;;;;;;4.60;4.20;;;15.20;99.90;;;;;;5070081;28;20052;-75
2022/07/12 03:47:41;;;;;;;4.38;4.07;;;15.20;99.90;;;;;;5060737;28;20041;-73
2022/07/12 03:50:10;;;;;;;4.75;4.45;;;15.20;99.90;;;;;;5064137;28;20377;-74
2022/07/12 03:52:36;;;;;;;4.30;4.00;;;15.20;99.90;;;;;;5067829;28;20135;-73
2022/07/12 03:55:02;;;;;;;3.75;3.55;;;15.20;99.90;;;;;;5050377;28;20468;-73
2022/07/12 03:57:29;;;;;;;4.95;4.45;;;15.20;99.90;;;;;;5068979;28;20123;-74
2022/07/12 03:59:55;;;;;;;5.25;4.57;;;15.20;99.90;;;;;;5063790;28;20052;-73
2022/07/12 04:02:20;;;;;;;4.50;4.20;;;15.20;99.90;;;;;;5067352;28;20731;-73
2022/07/12 04:04:46;;;;;;;4.70;4.35;;;15.20;99.90;;;;;;5062620;28;20037;-74
2022/07/12 04:07:33;;;;;;;3.90;3.58;;;15.20;99.90;;;;;;5040700;28;20133;-72
2022/07/12 04:10:06;;;;;;;4.40;4.10;;;15.20;99.90;;;;;;5050067;28;20040;-74
2022/07/12 04:12:32;;;;;;;3.47;3.28;;;15.20;99.90;;;;;;5065517;28;21612;-73
2022/07/12 04:14:57;;;;;;;3.58;3.17;;;15.30;99.90;;;;;;5054652;28;20400;-73
2022/07/12 04:17:23;;;;;;;4.05;3.65;;;15.40;99.90;;;;;;5064426;28;20041;-73
2022/07/12 04:19:49;;;;;;;4.13;3.85;;;15.20;99.90;;;;;;5062243;28;20119;-74
2022/07/12 04:22:14;;;;;;;4.78;4.40;;;15.20;99.90;;;;;;5043026;28;20098;-74
2022/07/12 04:24:40;;;;;;;5.10;4.70;;;16.30;99.90;;;;;;5061273;28;20032;-73
2022/07/12 04:27:06;;;;;;;4.55;4.25;;;15.10;99.90;;;;;;5030483;28;20427;-73
2022/07/12 04:29:31;;;;;;;5.20;4.80;;;15.10;99.90;;;;;;5066684;28;20049;-73
2022/07/12 04:31:57;;;;;;;5.38;4.97;;;15.10;99.90;;;;;;5065235;28;20048;-74
2022/07/12 04:34:23;;;;;;;5.22;4.82;;;15.40;99.90;;;;;;5045994;28;21278;-74
2022/07/12 04:36:51;;;;;;;7.93;4.63;;;15.10;99.90;;;;;;5066034;28;20094;-74
2022/07/12 04:39:19;;;;;;;4.60;3.67;;;15.10;99.90;;;;;;5065010;28;20068;-74
2022/07/12 04:41:45;;;;;;;4.22;3.92;;;15.70;99.90;;;;;;5068773;28;20048;-74
2022/07/12 04:44:10;;;;;;;3.78;3.47;;;15.40;99.90;;;;;;5066911;28;20048;-73
2022/07/12 04:46:36;;;;;;;4.68;4.28;;;15.00;99.90;;;;;;5056015;28;20044;-74
2022/07/12 04:49:06;;;;;;;3.92;3.60;;;15.60;99.90;;;;;;5059876;28;20048;-73
2022/07/12 04:51:35;;;;;;;4.35;4.05;;;15.00;99.90;;;;;;5049371;28;20056;-76
2022/07/12 04:54:03;;;;;;;5.63;3.88;;;15.00;99.90;;;;;;5029181;28;20041;-74
2022/07/12 04:56:29;;;;;;;4.80;4.10;;;16.00;99.90;;;;;;5060777;28;20386;-74
2022/07/12 04:58:55;;;;;;;4.70;4.00;;;15.00;99.90;;;;;;5046869;28;20784;-75
2022/07/12 05:01:20;;;;;;;4.05;3.75;;;15.00;99.90;;;;;;5064011;28;20303;-74
2022/07/12 05:03:47;;;;;;;4.00;3.70;;;16.10;99.90;;;;;;5040228;28;20136;-74
2022/07/12 05:06:12;;;;;;;4.18;3.67;;;15.00;99.90;;;;;;5058055;28;20415;-75
2022/07/12 05:08:38;;;;;;;4.85;4.15;;;15.10;99.90;;;;;;5041856;28;20056;-75
2022/07/12 05:11:04;;;;;;;4.43;4.10;;;15.50;99.90;;;;;;5059033;28;20040;-74
2022/07/12 05:13:32;;;;;;;3.97;3.65;;;15.00;99.90;;;;;;5060983;28;20079;-73
2022/07/12 05:16:07;;;;;;;4.30;4.00;;;15.10;99.90;;;;;;5040423;28;20135;-74
2022/07/12 05:18:33;;;;;;;3.90;3.60;;;15.10;99.90;;;;;;5057079;28;20037;-73
2022/07/12 05:20:58;;;;;;;4.53;4.13;;;15.10;99.90;;;;;;5041232;28;20039;-74
2022/07/12 05:23:24;;;;;;;2.80;2.60;;;15.60;99.90;;;;;;5059354;28;20451;-73
2022/07/12 05:25:50;;;;;;;3.20;3.00;;;16.30;99.90;;;;;;5040414;28;20692;-74
2022/07/12 05:28:16;;;;;;;4.03;2.75;;;15.20;99.90;;;;;;4357953;28;10000687;-73
2022/07/12 05:30:43;;;;;;;2.90;2.70;;;15.80;99.90;;;;;;5057025;28;20499;-74
2022/07/12 05:33:09;;;;;;;2.78;2.58;;;15.00;99.90;;;;;;5053715;28;20560;-74
2022/07/12 05:35:34;;;;;;;3.03;2.83;;;15.30;99.90;;;;;;5047500;28;20145;-74
2022/07/12 05:38:01;;;;;;;3.70;2.88;;;15.30;99.90;;;;;;5047371;28;20054;-75
2022/07/12 05:40:27;;;;;;;3.15;2.92;;;15.30;99.90;;;;;;5063056;28;20033;-75
2022/07/12 05:42:55;;;;;;;3.05;2.72;;;15.30;99.90;;;;;;5050667;28;20060;-73
2022/07/12 05:45:24;;;;;;;3.55;3.17;;;15.40;99.90;;;;;;5061485;28;20129;-73
2022/07/12 05:47:50;;;;;;;3.40;3.20;;;15.40;99.90;;;;;;5057174;28;20045;-74
2022/07/12 05:50:15;;;;;;;3.30;3.10;;;15.40;99.90;;;;;;5057831;28;20051;-73
2022/07/12 05:55:25;;;;;;;2.90;2.70;;;15.40;99.90;;;;;;5066079;28;20063;-74
2022/07/12 05:57:51;;;;;;;3.67;2.95;;;15.50;99.90;;;;;;5065946;28;20036;-73
2022/07/12 06:00:16;;;;;;;3.20;2.90;;;15.50;99.90;;;;;;5046696;28;20048;-74
2022/07/12 06:02:42;;;;;;;2.55;2.45;;;15.50;99.90;;;;;;5062051;28;20044;-73
2022/07/12 06:05:08;;;;;;;2.78;2.55;;;15.50;99.90;;;;;;5065861;28;20045;-72
2022/07/12 06:07:34;;;;;;;2.85;2.65;;;15.50;99.90;;;;;;5043355;28;20470;-73
2022/07/12 06:09:59;;;;;;;3.65;2.45;;;15.90;99.90;;;;;;5056968;28;20073;-73
2022/07/12 06:12:25;;;;;;;3.40;3.13;;;15.50;99.90;;;;;;5060774;28;20029;-74
2022/07/12 06:14:53;;;;;;;2.83;2.63;;;15.60;99.90;;;;;;5062614;28;20093;-74
2022/07/12 06:17:22;;;;;;;2.70;2.53;;;15.60;99.90;;;;;;5064398;28;20086;-73
2022/07/12 06:19:49;;;;;;;2.97;2.78;;;15.70;99.90;;;;;;5062191;28;20076;-74
2022/07/12 06:22:14;;;;;;;2.17;2.00;;;15.70;99.90;;;;;;5045939;28;20264;-74
2022/07/12 06:24:52;;;;;;;2.45;2.25;;;15.70;99.90;;;;;;5061348;28;20044;-74
2022/07/12 06:27:20;;;;;;;2.72;1.80;;;15.80;99.90;;;;;;5042733;28;20040;-73
2022/07/12 06:29:47;;;;;;;1.98;1.88;;;15.80;99.90;;;;;;5057397;28;20260;-74
2022/07/12 06:32:17;;;;;;;2.40;2.25;;;16.90;99.90;;;;;;5042838;28;20049;-73
2022/07/12 06:34:42;;;;;;;2.17;2.08;;;15.80;99.90;;;;;;5060979;28;20716;-72
2022/07/12 06:37:22;;;;;;;5.18;2.20;;;15.90;99.90;;;;;;5066307;28;20123;-72
2022/07/12 06:39:48;;;;;;;2.17;2.08;;;16.00;99.90;;;;;;5051426;28;20132;-73
2022/07/12 06:42:14;;;;;;;2.65;2.05;;;16.00;99.90;;;;;;5060957;28;20132;-73
2022/07/12 06:44:39;;;;;;;2.17;2.03;;;16.00;99.90;;;;;;5060559;28;20435;-73
2022/07/12 06:47:05;;;;;;;3.33;2.00;;;16.40;99.90;;;;;;5054090;28;20061;-74
2022/07/12 06:49:31;;;;;;;2.55;2.08;;;16.10;99.90;;;;;;5046559;28;20040;-74
2022/07/12 06:51:56;;;;;;;2.13;2.03;;;17.10;99.90;;;;;;5040509;28;20044;-73
2022/07/12 06:54:22;;;;;;;3.08;1.60;;;16.20;99.90;;;;;;5061783;28;20040;-74
2022/07/12 06:56:50;;;;;;;2.13;1.90;;;16.30;99.90;;;;;;5038570;28;20059;-74
2022/07/12 06:59:16;;;;;;;2.03;1.92;;;16.90;99.90;;;;;;5049841;28;20114;-74
2022/07/12 07:01:43;;;;;;;1.92;1.83;;;16.40;99.90;;;;;;5048512;28;20488;-74
2022/07/12 07:04:08;;;;;;;2.58;1.63;;;17.60;99.90;;;;;;5061964;28;20082;-74
2022/07/12 07:06:34;;;;;;;1.67;1.58;;;17.90;99.90;;;;;;5062507;28;20044;-74
2022/07/12 07:08:59;;;;;;;7.03;1.70;;;16.70;99.90;;;;;;5069787;28;20032;-73
2022/07/12 07:11:26;;;;;;;1.60;1.20;;;16.80;99.90;;;;;;5051314;28;20087;-74
2022/07/12 07:13:51;;;;;;;3.10;1.67;;;17.50;99.90;;;;;;5063221;28;20047;-74
2022/07/12 07:16:22;;;;;;;1.92;1.77;;;17.00;99.90;;;;;;5047557;28;20124;-74
2022/07/12 07:18:50;;;;;;;1.90;1.80;;;17.00;99.90;;;;;;5061101;28;20129;-74
2022/07/12 07:21:16;;;;;;;1.73;1.63;;;17.10;99.90;;;;;;5066701;28;20048;-74
2022/07/12 07:23:41;;;;;;;1.90;1.80;;;17.80;99.90;;;;;;5067612;28;20036;-74
2022/07/12 07:26:07;;;;;;;1.90;1.80;;;17.30;99.90;;;;;;5070606;28;20102;-74
2022/07/12 07:30:51;;;;;;;1.83;1.73;;;18.30;99.90;;;;;;5070285;28;20048;-76
2022/07/12 07:31:18;;;;;;;2.30;2.10;;;17.40;99.90;;;;;;5036932;28;20087;-78
2022/07/12 07:33:44;;;;;;;1.85;1.75;;;17.40;99.90;;;;;;5070481;28;20041;-79
2022/07/12 07:36:09;;;;;;;1.88;1.75;;;17.50;99.90;;;;;;5070159;28;20040;-78
2022/07/12 07:38:35;;;;;;;2.35;2.15;;;17.60;99.90;;;;;;5070231;28;20385;-74
2022/07/12 07:41:01;;;;;;;2.22;2.13;;;17.60;99.90;;;;;;5066671;28;20044;-78
2022/07/12 07:43:26;;;;;;;2.00;1.83;;;17.70;99.90;;;;;;5067090;28;20074;-77
2022/07/12 07:45:53;;;;;;;2.03;1.92;;;17.80;99.90;;;;;;5070249;28;20444;-77
2022/07/12 07:48:19;;;;;;;1.77;1.70;;;17.90;99.90;;;;;;5070691;28;20059;-79
2022/07/12 07:50:44;;;;;;;2.22;2.03;;;18.00;99.90;;;;;;5069179;28;20527;-79
2022/07/12 07:53:10;;;;;;;1.98;1.70;;;18.10;99.90;;;;;;5066335;28;20070;-76
2022/07/12 07:55:35;;;;;;;1.95;1.67;;;18.60;99.90;;;;;;4708482;28;10000383;-74
2022/07/12 07:58:01;;;;;;;1.60;1.50;;;18.20;99.90;;;;;;5058395;28;20044;-74
2022/07/12 08:00:28;;;;;;;1.63;1.52;;;18.30;99.90;;;;;;5058803;28;20036;-74
2022/07/12 08:02:55;;;;;;;3.88;1.67;;;18.40;99.90;;;;;;5064898;28;20044;-74
2022/07/12 08:05:21;;;;;;;1.75;1.20;;;18.80;99.90;;;;;;5058852;28;20040;-74
2022/07/12 08:07:47;;;;;;;1.80;1.70;;;18.60;99.90;;;;;;5064027;28;20066;-74
2022/07/12 08:10:12;;;;;;;5.43;1.88;;;19.20;99.90;;;;;;5060785;28;20589;-74
2022/07/12 08:12:38;;;;;;;1.95;1.85;;;18.70;99.90;;;;;;5056176;28;20067;-74
2022/07/12 08:15:04;;;;;;;2.90;2.60;;;19.00;99.90;;;;;;5065368;28;20516;-75
2022/07/12 08:17:29;;;;;;;2.70;2.20;;;18.80;99.90;;;;;;5060395;28;20041;-74
2022/07/12 08:19:55;;;;;;;1.70;1.67;;;18.90;99.90;;;;;;5055737;28;20221;-75
2022/07/12 08:22:21;;;;;;;2.15;1.20;;;18.80;99.90;;;;;;5058801;28;20523;-75
2022/07/12 08:24:46;;;;;;;3.17;2.20;;;18.90;99.90;;;;;;5060320;28;20075;-75
2022/07/12 08:27:12;;;;;;;1.90;1.75;;;19.00;99.90;;;;;;5058154;28;20625;-74
2022/07/12 08:29:37;;;;;;;2.42;1.80;;;19.00;99.90;;;;;;5061832;28;20029;-73
2022/07/12 08:32:04;;;;;;;2.50;1.40;;;19.10;99.90;;;;;;5066888;28;20044;-76
2022/07/12 08:34:29;;;;;;;1.13;1.13;;;19.10;99.90;;;;;;5064305;28;20040;-75
2022/07/12 08:36:55;;;;;;;2.67;1.33;;;19.20;99.90;;;;;;5062783;28;20045;-75
2022/07/12 08:39:21;;;;;;;1.15;1.15;;;19.20;99.90;;;;;;5064270;28;20040;-75
2022/07/12 08:41:46;;;;;;;2.10;2.00;;;19.70;99.90;;;;;;5060889;28;20040;-75
2022/07/12 08:44:12;;;;;;;1.65;1.45;;;19.30;99.90;;;;;;5060235;28;20060;-74
2022/07/12 08:46:37;;;;;;;8.05;2.63;;;19.30;99.90;;;;;;5066568;28;20583;-74
2022/07/12 08:49:09;;;;;;;4.25;1.80;;;19.40;99.90;;;;;;5066904;28;20099;-75
2022/07/12 08:51:35;;;;;;;1.88;1.58;;;19.40;99.90;;;;;;5057698;28;20048;-75
2022/07/12 08:54:12;;;;;;;2.22;1.48;;;19.50;99.90;;;;;;5055989;28;20044;-75
2022/07/12 08:56:40;;;;;;;3.25;1.60;;;19.60;99.90;;;;;;5054908;28;20531;-75
2022/07/12 08:59:23;;;;;;;2.72;1.65;;;19.60;99.90;;;;;;5062869;28;20098;-74
2022/07/12 09:01:53;;;;;;;3.72;2.47;;;19.60;99.90;;;;;;5060517;28;20368;-75
2022/07/12 09:04:24;;;;;;;1.80;1.70;;;19.70;99.90;;;;;;5065579;28;20048;-75
2022/07/12 09:06:50;;;;;;;2.03;1.92;;;19.80;99.90;;;;;;5062859;28;20048;-75
2022/07/12 09:09:29;;;;;;;2.45;2.17;;;20.20;99.90;;;;;;5043867;28;20036;-75
2022/07/12 09:11:55;;;;;;;2.30;2.08;;;20.40;99.90;;;;;;5056026;28;20045;-77
2022/07/12 09:14:21;;;;;;;2.75;1.80;;;20.00;99.90;;;;;;5066325;28;20115;-76
2022/07/12 09:17:02;;;;;;;1.52;1.42;;;20.00;99.90;;;;;;5065619;28;20124;-77
2022/07/12 09:19:29;;;;;;;2.78;2.58;;;20.10;99.90;;;;;;5066532;28;20048;-75
2022/07/12 09:21:55;;;;;;;4.40;2.40;;;20.30;99.90;;;;;;5057498;28;20051;-75
2022/07/12 09:24:24;;;;;;;4.93;2.30;;;20.30;99.90;;;;;;5056032;28;20116;-76
2022/07/12 09:27:02;;;;;;;2.85;2.63;;;20.30;99.90;;;;;;5065352;28;20132;-79
2022/07/12 09:29:28;;;;;;;2.65;2.38;;;20.40;99.90;;;;;;5055880;28;20044;-76
2022/07/12 09:37:25;;;;;;;2.67;2.47;;;20.60;99.90;;;;;;5055771;28;20044;-76
2022/07/12 09:39:55;;;;;;;2.47;2.03;;;20.70;99.90;;;;;;5063064;28;20041;-76
2022/07/12 09:42:21;;;;;;;5.20;1.70;;;20.80;99.90;;;;;;5063728;28;20052;-76
2022/07/12 09:44:47;;;;;;;4.50;2.20;;;20.80;99.90;;;;;;5062113;28;20404;-75
2022/07/12 09:47:15;;;;;;;1.98;1.88;;;20.80;99.90;;;;;;5066650;28;20368;-74
2022/07/12 09:49:42;;;;;;;2.92;2.72;;;20.90;99.90;;;;;;5063823;28;20523;-75
2022/07/12 09:52:26;;;;;;;3.22;2.05;;;20.90;99.90;;;;;;5065521;28;20408;-75
2022/07/12 09:54:54;;;;;;;1.73;1.63;;;20.90;99.90;;;;;;5052120;28;20131;-78
2022/07/12 09:57:26;;;;;;;1.50;1.40;;;21.00;99.90;;;;;;5039568;28;20492;-76
2022/07/12 09:59:52;;;;;;;2.17;1.98;;;21.10;99.90;;;;;;5055789;28;20044;-75
2022/07/12 10:02:18;;;;;;;4.55;2.60;;;21.20;99.90;;;;;;5056371;28;20040;-75
2022/07/12 10:04:46;;;;;;;1.38;1.27;;;21.30;99.90;;;;;;5062106;28;20276;-74
2022/07/12 10:07:16;;;;;;;2.35;1.50;;;21.40;99.90;;;;;;5055413;28;20044;-75
2022/07/12 10:09:46;;;;;;;2.08;1.63;;;21.40;99.90;;;;;;5064804;28;20045;-73
2022/07/12 10:12:15;;;;;;;4.13;1.58;;;21.60;99.90;;;;;;5067004;28;20044;-75
2022/07/12 10:14:41;;;;;;;1.52;1.42;;;21.60;99.90;;;;;;5063588;28;20809;-75
2022/07/12 10:17:13;;;;;;;2.72;1.48;;;21.80;99.90;;;;;;5056122;28;20054;-75
2022/07/12 10:19:39;;;;;;;1.33;0.77;;;21.90;99.90;;;;;;5039129;28;20512;-74
2022/07/12 10:22:18;;;;;;;1.40;1.30;;;21.90;99.90;;;;;;5060123;28;20083;-74
2022/07/12 10:24:44;;;;;;;1.27;1.20;;;22.10;99.90;;;;;;5053732;28;20056;-75
2022/07/12 10:27:13;;;;;;;1.40;0.70;;;22.00;99.90;;;;;;5055130;28;20049;-74
2022/07/12 10:29:44;;;;;;;0.50;0.50;;;22.00;99.90;;;;;;5057413;28;20095;-74
2022/07/12 10:32:26;;;;;;;4.35;0.65;;;22.40;99.90;;;;;;5036682;28;20045;-75
2022/07/12 10:35:13;;;;;;;1.15;0.90;;;22.10;99.90;;;;;;5053531;28;20480;-76
2022/07/12 10:37:38;;;;;;;1.02;0.90;;;22.10;99.90;;;;;;5064605;28;20440;-74
2022/07/12 10:40:20;;;;;;;0.95;0.63;;;22.30;99.90;;;;;;5065672;28;20067;-75
2022/07/12 10:43:04;;;;;;;0.55;0.45;;;22.20;99.90;;;;;;5069557;28;20175;-75
2022/07/12 10:45:35;;;;;;;3.95;1.20;;;22.30;99.90;;;;;;5062287;28;20045;-75
2022/07/12 10:48:07;;;;;;;3.42;0.85;;;22.40;99.90;;;;;;5062842;28;20198;-75
2022/07/12 10:51:00;;;;;;;1.75;1.00;;;22.50;99.90;;;;;;5062929;28;20044;-75
2022/07/12 10:53:40;;;;;;;4.10;0.60;;;22.60;99.90;;;;;;5042983;28;20078;-75
2022/07/12 10:56:06;;;;;;;2.05;0.40;;;22.80;99.90;;;;;;5056630;28;20052;-76
2022/07/12 10:58:34;;;;;;;1.77;0.47;;;22.90;99.90;;;;;;5066827;28;20050;-77
2022/07/12 11:01:03;;;;;;;1.08;0.60;;;22.90;99.90;;;;;;5048356;28;20048;-77
2022/07/12 11:03:40;;;;;;;1.15;0.50;;;23.00;99.90;;;;;;5058696;28;20488;-75
2022/07/12 11:06:08;;;;;;;0.20;0.20;;;22.90;99.90;;;;;;5039897;28;20049;-75
2022/07/12 11:08:47;;;;;;;0.82;0.30;;;23.20;99.90;;;;;;5066937;28;20049;-75
2022/07/12 11:11:13;;;;;;;1.65;0.20;;;23.10;99.90;;;;;;5029938;28;20075;-74
2022/07/12 11:13:38;;;;;;;1.55;0.50;;;23.10;99.90;;;;;;5061625;28;20563;-75
2022/07/12 11:16:05;;;;;;;2.58;0.95;;;23.10;99.90;;;;;;5060955;28;20101;-74
2022/07/12 11:18:32;;;;;;;0.93;0.50;;;23.20;99.90;;;;;;5045618;28;20080;-76
2022/07/12 11:20:58;;;;;;;1.80;1.20;;;23.30;99.90;;;;;;5066995;28;20399;-76
2022/07/12 11:23:28;;;;;;;1.77;1.00;;;23.30;99.90;;;;;;5064101;28;20044;-75
2022/07/12 11:25:59;;;;;;;0.80;0.80;;;23.40;99.90;;;;;;5065677;28;20082;-75
2022/07/12 11:28:26;;;;;;;1.60;0.40;;;23.40;99.90;;;;;;5063523;28;20091;-76
2022/07/12 11:30:52;;;;;;;0.57;0.57;;;23.50;99.90;;;;;;5059097;28;20048;-76
2022/07/12 11:33:18;;;;;;;0.77;0.50;;;23.60;99.90;;;;;;5040124;28;20033;-75
2022/07/12 11:35:45;;;;;;;1.55;0.75;;;23.60;99.90;;;;;;5047297;28;20037;-76
2022/07/12 11:38:11;;;;;;;2.08;0.60;;;23.60;99.90;;;;;;5066775;28;20480;-75
2022/07/12 11:40:37;;;;;;;0.70;0.30;;;23.70;99.90;;;;;;5061990;28;20040;-75
2022/07/12 11:43:04;;;;;;;1.27;0.30;;;23.80;99.90;;;;;;5066538;28;20542;-76
2022/07/12 11:45:32;;;;;;;0.85;0.55;;;23.90;99.90;;;;;;5046119;28;20333;-75
2022/07/12 11:47:59;;;;;;;0.68;0.32;;;23.90;99.90;;;;;;5058691;28;20056;-75
2022/07/12 11:50:25;;;;;;;1.55;0.50;;;24.00;99.90;;;;;;5064576;28;20047;-76
2022/07/12 11:52:51;;;;;;;1.75;0.80;;;24.10;99.90;;;;;;5065916;28;20037;-74
2022/07/12 11:55:17;;;;;;;1.30;0.80;;;24.20;99.90;;;;;;5065824;28;20090;-77
2022/07/12 11:57:43;;;;;;;0.77;0.57;;;24.30;99.90;;;;;;5066199;28;20496;-75
2022/07/12 12:00:22;;;;;;;1.15;0.55;;;24.40;99.90;;;;;;5044168;28;20049;-78
2022/07/12 12:02:52;;;;;;;0.77;0.30;;;24.50;99.90;;;;;;5068827;28;20392;-76
2022/07/12 12:05:21;;;;;;;0.82;0.80;;;24.60;99.90;;;;;;5066975;28;20032;-76
2022/07/12 12:07:47;;;;;;;1.55;1.27;;;24.70;99.90;;;;;;5059046;28;20033;-76
2022/07/12 12:10:17;;;;;;;4.80;0.90;;;24.70;99.90;;;;;;5066167;28;20188;-76
2022/07/12 12:12:49;;;;;;;2.13;0.65;;;24.90;99.90;;;;;;5065279;28;20077;-75
2022/07/12 12:15:22;;;;;;;0.95;0.73;;;24.90;99.90;;;;;;5064312;28;20048;-75
2022/07/12 12:17:54;;;;;;;3.60;0.45;;;24.90;99.90;;;;;;5066697;28;20390;-75
2022/07/12 12:20:47;;;;;;;0.50;0.30;;;25.00;99.90;;;;;;5064328;28;20048;-75
2022/07/12 12:23:18;;;;;;;2.17;0.40;;;25.20;99.90;;;;;;5061210;28;20381;-75
2022/07/12 12:25:45;;;;;;;0.52;0.32;;;25.40;99.90;;;;;;5063450;28;20110;-74
2022/07/12 12:28:11;;;;;;;1.45;0.60;;;25.70;99.90;;;;;;5063922;28;20048;-76
2022/07/12 12:30:52;;;;;;;0.65;0.57;;;25.70;99.90;;;;;;5065429;28;20044;-76
2022/07/12 12:33:35;;;;;;;2.78;1.05;;;25.80;99.90;;;;;;5058617;28;20511;-75
2022/07/12 12:36:17;;;;;;;1.23;0.80;;;25.90;99.90;;;;;;5064489;28;20136;-75
2022/07/12 12:38:43;;;;;;;0.80;0.60;;;25.80;99.90;;;;;;5047597;28;20147;-77
2022/07/12 12:41:11;;;;;;;1.10;0.65;;;25.90;99.90;;;;;;5062181;28;20120;-76
2022/07/12 12:43:36;;;;;;;1.48;0.73;;;25.90;99.90;;;;;;5066150;28;20052;-76
2022/07/12 12:46:02;;;;;;;4.45;0.98;;;25.90;99.90;;;;;;5065920;28;20052;-77
2022/07/12 12:48:30;;;;;;;2.15;0.82;;;25.80;99.90;;;;;;5064298;28;20037;-75
2022/07/12 12:51:05;;;;;;;3.55;1.10;;;25.80;99.90;;;;;;5067629;28;20054;-74
2022/07/12 12:53:31;;;;;;;2.67;0.73;;;25.80;99.90;;;;;;5068467;28;20037;-75
2022/07/12 12:55:57;;;;;;;3.13;0.90;;;25.80;99.90;;;;;;5063153;28;20045;-77
2022/07/12 12:58:24;;;;;;;1.05;0.80;;;26.00;99.90;;;;;;5067391;28;20044;-78